Blackstone, Massachusetts
Current Conditions -  °F | °C
As of 8:15 AM on Thursday 23 Oct 2014 (Local Time) from KSFZ Reporting Station
Overcast Overcast  
Wind Chill: 42°   Ceiling: 800
Heat Index: 48°   Visibility: 10mi
Dew Point: 41°   Wind: 18mph
Humidity: 76%   Direction: 20°NNE
Pressure: 29.62"   Gusts: 31mph
Location:  42.02°N, 71.54°W
Report Text: KSFZ 231215Z 02016G27KT 10SM BKN008 OVC014 09/05 A2962 RMK AO1 P0001
Loading
Personal Weather Stations






























Interactive Weather Map
Tropical Storm Tracking
New forecast layout! Learn more

10-Day Weather Forecast

Advertisements
Track Severe Weather on mobile